CYCO

Kugluktuk Airport

Kugluktuk, Canada
METAR CYCO 181238Z 10011KT 10SM -SN OVC034 M13/M16 A2948 RMK SC8 SLP986
Observed Flight Rules
Dec-18 @ 12:38 UTC (30 minutes ago) Visual Flight Rules
Wind Visibility Clouds Conditions
100° at 11 knots 10 miles
  • Overcast at 3,400' AGL
  • Light Snow
Temperatures Readings
Current -13°C / 9°F
Dewpoint -16°C / 3°F
Humidity 78%
Altimeter 29.48" Hg
Pressure 998.6 hPa
Elevation 22
METAR CYCO 181238Z 10011KT 10SM -SN OVC034 M13/M16 A2948 RMK SC8 SLP986
Observed Flight Rules
Dec-18 @ 12:38 UTC
(30 minutes ago)
VFR
Wind Visibility
100° at 11 knots 10 miles
Clouds
  • Overcast at 3,400' AGL
Conditions
  • Light Snow
Temperature Dewpoint
-13°C / 9°F -16°C / 3°F
Humidity Altimeter Pressure
78% 29.48" Hg 998.6 hPa